createdAt,value
2018-01-18T00:00:19.865Z,93819.61
2018-01-18T00:02:48.254Z,93825.57
2018-01-18T00:05:16.624Z,93812.59
2018-01-18T00:07:45.054Z,93821.70
2018-01-18T00:10:13.491Z,93798.58
2018-01-18T00:12:41.964Z,93816.42
2018-01-18T00:15:10.317Z,93814.55
2018-01-18T00:17:38.665Z,93806.23
2018-01-18T00:20:07.029Z,93816.17
2018-01-18T00:22:35.404Z,93815.95
2018-01-18T00:25:03.858Z,93803.92
2018-01-18T00:27:32.241Z,93796.13
2018-01-18T00:30:00.592Z,93798.73
2018-01-18T00:32:28.955Z,93793.48
2018-01-18T00:34:57.869Z,93787.77
2018-01-18T00:37:26.289Z,93790.69
2018-01-18T00:39:54.647Z,93780.83
2018-01-18T00:42:23.007Z,93785.79
2018-01-18T00:44:51.426Z,93793.61
2018-01-18T00:47:19.792Z,93786.91
2018-01-18T00:49:48.156Z,93772.13
2018-01-18T00:52:16.628Z,93760.20
2018-01-18T00:54:44.979Z,93759.25
2018-01-18T00:57:13.339Z,93756.91
2018-01-18T00:59:41.713Z,93749.95
2018-01-18T01:02:10.169Z,93749.72
2018-01-18T01:04:38.536Z,93750.91
2018-01-18T01:07:06.900Z,93741.17
2018-01-18T01:09:35.308Z,93737.03
2018-01-18T01:12:03.680Z,93742.11
2018-01-18T01:14:32.051Z,93734.98
2018-01-18T01:17:00.423Z,93741.61
2018-01-18T01:19:28.823Z,93738.39
2018-01-18T01:21:57.179Z,93728.44
2018-01-18T01:24:25.543Z,93727.93
2018-01-18T01:26:53.931Z,93719.15
2018-01-18T01:29:22.313Z,93711.73
2018-01-18T01:31:50.680Z,93715.93
2018-01-18T01:34:19.043Z,93705.16
2018-01-18T01:36:47.414Z,93705.45
2018-01-18T01:39:15.807Z,93713.09
2018-01-18T01:41:44.162Z,93714.46
2018-01-18T01:44:12.522Z,93707.22
2018-01-18T01:46:40.902Z,93703.06
2018-01-18T01:49:09.288Z,93697.67
2018-01-18T01:51:37.687Z,93691.94
2018-01-18T01:54:06.064Z,93675.53
2018-01-18T01:56:34.427Z,93665.59
2018-01-18T01:59:02.798Z,93665.24
2018-01-18T02:01:31.170Z,93644.39
2018-01-18T02:03:59.738Z,93651.84
2018-01-18T02:06:28.110Z,93651.94
2018-01-18T02:08:56.503Z,93641.81
2018-01-18T02:11:24.885Z,93635.86
2018-01-18T02:13:53.284Z,93635.64
2018-01-18T02:16:21.633Z,93628.92
2018-01-18T02:18:49.986Z,93624.39
2018-01-18T02:21:18.360Z,93618.59
2018-01-18T02:23:46.848Z,93609.30
2018-01-18T02:26:15.244Z,93612.08
2018-01-18T02:28:43.596Z,93610.41
2018-01-18T02:31:12.099Z,93578.08
2018-01-18T02:33:40.521Z,93583.37
2018-01-18T02:36:08.951Z,93567.66
2018-01-18T02:38:37.326Z,93575.73
2018-01-18T02:41:05.684Z,93574.06
2018-01-18T02:43:34.047Z,93565.17
2018-01-18T02:46:02.395Z,93563.36
2018-01-18T02:48:30.744Z,93563.95
2018-01-18T02:50:59.150Z,93567.36
2018-01-18T02:53:27.515Z,93556.38
2018-01-18T02:55:55.872Z,93558.14
2018-01-18T02:58:24.224Z,93538.14
2018-01-18T03:00:52.589Z,93524.08
2018-01-18T03:03:20.980Z,93527.77
2018-01-18T03:05:49.342Z,93512.20
2018-01-18T03:08:17.750Z,93501.14
2018-01-18T03:10:46.109Z,93496.69
2018-01-18T03:13:14.500Z,93489.65
2018-01-18T03:15:42.898Z,93484.03
2018-01-18T03:18:11.276Z,93473.34
2018-01-18T03:20:39.626Z,93475.38
2018-01-18T03:23:07.980Z,93457.03
2018-01-18T03:25:36.328Z,93459.52
2018-01-18T03:28:04.717Z,93457.14
2018-01-18T03:30:33.075Z,93444.12
2018-01-18T03:33:01.654Z,93420.25
2018-01-18T03:35:30.017Z,93415.17
2018-01-18T03:37:58.366Z,93413.24
2018-01-18T03:40:26.726Z,93399.97
2018-01-18T03:42:55.084Z,93391.67
2018-01-18T03:45:23.464Z,93387.93
2018-01-18T03:47:51.818Z,93382.82
2018-01-18T03:50:20.168Z,93373.95
2018-01-18T03:52:48.510Z,93366.77
2018-01-18T03:55:16.854Z,93351.14
2018-01-18T03:57:45.238Z,93348.08
2018-01-18T04:00:32.092Z,93321.33
2018-01-18T04:03:00.445Z,93321.84
2018-01-18T04:05:28.903Z,93314.06
2018-01-18T04:07:57.241Z,93301.23
2018-01-18T04:10:25.647Z,93295.38
2018-01-18T04:12:54.017Z,93277.33
2018-01-18T04:15:22.399Z,93280.00
2018-01-18T04:17:50.766Z,93266.44
2018-01-18T04:20:19.121Z,93255.79
2018-01-18T04:22:47.584Z,93239.67
2018-01-18T04:25:15.937Z,93233.03
2018-01-18T04:27:44.311Z,93219.39
2018-01-18T04:30:12.772Z,93220.25
2018-01-18T04:32:41.255Z,93195.76
2018-01-18T04:35:09.602Z,93185.53
2018-01-18T04:37:37.960Z,93159.05
2018-01-18T04:40:06.320Z,93147.10
2018-01-18T04:42:34.655Z,93135.27
2018-01-18T04:45:03.043Z,93117.81
2018-01-18T04:47:31.408Z,93104.16
2018-01-18T04:49:59.762Z,93093.89
2018-01-18T04:52:28.111Z,93087.86
2018-01-18T04:54:56.465Z,93067.22
2018-01-18T04:57:24.878Z,93049.91
2018-01-18T04:59:53.235Z,93036.91
2018-01-18T05:02:21.589Z,93025.59
2018-01-18T05:04:50.014Z,93016.75
2018-01-18T05:07:18.350Z,93003.00
2018-01-18T05:09:46.743Z,93001.45
2018-01-18T05:12:15.088Z,92976.70
2018-01-18T05:14:43.435Z,92960.84
2018-01-18T05:17:11.798Z,92957.05
2018-01-18T05:19:40.142Z,92948.94
2018-01-18T05:22:08.524Z,92936.08
2018-01-18T05:24:36.876Z,92920.64
2018-01-18T05:27:05.366Z,92912.77
2018-01-18T05:29:33.706Z,92902.56
2018-01-18T05:32:02.062Z,92895.15
2018-01-18T05:34:30.417Z,92893.95
2018-01-18T05:36:58.756Z,92870.91
2018-01-18T05:39:27.147Z,92875.28
2018-01-18T05:41:55.486Z,92859.66
2018-01-18T05:44:23.839Z,92863.37
2018-01-18T05:46:52.194Z,92836.66
2018-01-18T05:49:20.542Z,92830.69
2018-01-18T05:51:48.921Z,92834.20
2018-01-18T05:54:17.278Z,92797.35
2018-01-18T05:56:45.648Z,92792.30
2018-01-18T05:59:13.987Z,92780.56
2018-01-18T06:01:42.353Z,92770.57
2018-01-18T06:04:10.745Z,92777.97
2018-01-18T06:06:39.091Z,92739.89
2018-01-18T06:09:07.442Z,92751.41
2018-01-18T06:11:35.794Z,92746.17
2018-01-18T06:14:04.161Z,92742.67
2018-01-18T06:16:32.546Z,92733.64
2018-01-18T06:19:00.926Z,92726.02
2018-01-18T06:21:29.279Z,92722.81
2018-01-18T06:23:57.625Z,92702.70
2018-01-18T06:26:29.856Z,92693.53
2018-01-18T06:28:58.241Z,92684.60
2018-01-18T06:31:26.599Z,92689.11
2018-01-18T06:33:54.956Z,92677.57
2018-01-18T06:36:23.334Z,92656.80
2018-01-18T06:38:51.683Z,92673.44
2018-01-18T06:41:20.044Z,92653.93
2018-01-18T06:43:48.378Z,92656.14
2018-01-18T06:46:16.731Z,92640.81
2018-01-18T06:48:45.100Z,92648.91
2018-01-18T06:51:13.451Z,92641.08
2018-01-18T06:53:41.824Z,92645.47
2018-01-18T06:56:10.170Z,92597.61
2018-01-18T06:58:38.552Z,92567.34
2018-01-18T07:01:06.934Z,92573.70
2018-01-18T07:03:35.294Z,92551.50
2018-01-18T07:06:03.819Z,92546.05
2018-01-18T07:08:32.173Z,92523.88
2018-01-18T07:11:00.529Z,92520.34
2018-01-18T07:13:29.115Z,92530.72
2018-01-18T07:15:57.456Z,92519.48
2018-01-18T07:18:25.918Z,92502.20
2018-01-18T07:20:54.271Z,92506.91
2018-01-18T07:23:22.661Z,92518.73
2018-01-18T07:25:51.061Z,92487.20
2018-01-18T07:28:19.399Z,92498.93
2018-01-18T07:30:47.972Z,92450.66
2018-01-18T07:33:16.419Z,92450.03
2018-01-18T07:35:44.783Z,92437.59
2018-01-18T07:38:13.167Z,92451.53
2018-01-18T07:40:41.545Z,92432.42
2018-01-18T07:43:09.946Z,92432.69
2018-01-18T07:45:38.315Z,92435.29
2018-01-18T07:48:06.720Z,92420.95
2018-01-18T07:50:35.093Z,92404.20
2018-01-18T07:53:03.935Z,92389.61
2018-01-18T07:55:32.485Z,92412.78
2018-01-18T07:58:01.127Z,92378.33
2018-01-18T08:00:29.517Z,92380.68
2018-01-18T08:03:03.419Z,92387.20
2018-01-18T08:05:31.820Z,92372.03
2018-01-18T08:08:00.317Z,92382.75
2018-01-18T08:10:28.672Z,92372.66
2018-01-18T08:12:57.009Z,92384.05
2018-01-18T08:15:25.420Z,92336.50
2018-01-18T08:17:53.822Z,92356.56
2018-01-18T08:20:22.179Z,92366.70
2018-01-18T08:22:50.645Z,92332.13
2018-01-18T08:25:19.115Z,92345.25
2018-01-18T08:27:47.630Z,92312.57
2018-01-18T08:30:16.092Z,92342.01
2018-01-18T08:32:44.445Z,92346.31
2018-01-18T08:35:12.814Z,92311.17
2018-01-18T08:37:41.159Z,92304.16
2018-01-18T08:40:09.534Z,92315.14
2018-01-18T08:42:37.919Z,92317.39
2018-01-18T08:45:06.283Z,92320.11
2018-01-18T08:47:34.623Z,92306.09
2018-01-18T08:50:02.990Z,92303.84
2018-01-18T08:52:31.336Z,92295.30
2018-01-18T08:54:59.735Z,92270.78
2018-01-18T08:57:28.103Z,92263.96
2018-01-18T08:59:56.626Z,92259.46
2018-01-18T09:02:25.241Z,92247.80
2018-01-18T09:04:53.623Z,92241.33
2018-01-18T09:07:21.992Z,92267.28
2018-01-18T09:09:50.334Z,92256.24
2018-01-18T09:12:18.724Z,92229.15
2018-01-18T09:14:47.074Z,92221.25
2018-01-18T09:17:15.418Z,92238.80
2018-01-18T09:19:43.814Z,92237.74
2018-01-18T09:22:12.175Z,92208.90
2018-01-18T09:24:40.565Z,92205.60
2018-01-18T09:27:08.939Z,92192.66
2018-01-18T09:29:37.298Z,92192.73
2018-01-18T09:32:05.642Z,92191.94
2018-01-18T09:34:34.044Z,92205.73
2018-01-18T09:37:02.399Z,92179.28
2018-01-18T09:39:30.776Z,92183.36
2018-01-18T09:41:59.260Z,92161.91
2018-01-18T09:44:27.603Z,92173.89
2018-01-18T09:46:55.966Z,92154.83
2018-01-18T09:49:24.343Z,92177.68
2018-01-18T09:51:52.722Z,92170.61
2018-01-18T09:54:21.068Z,92155.69
2018-01-18T09:56:49.431Z,92143.09
2018-01-18T09:59:17.784Z,92145.64
2018-01-18T10:01:46.268Z,92140.72
2018-01-18T10:04:14.622Z,92149.77
2018-01-18T10:06:43.039Z,92135.55
2018-01-18T10:09:11.395Z,92140.86
2018-01-18T10:11:39.781Z,92137.37
2018-01-18T10:14:08.283Z,92110.50
2018-01-18T10:16:36.659Z,92135.47
2018-01-18T10:19:21.911Z,92129.34
2018-01-18T10:24:49.883Z,92137.38
2018-01-18T10:27:18.230Z,92093.34
2018-01-18T10:29:58.037Z,92136.14
2018-01-18T10:32:26.586Z,92102.41
2018-01-18T10:34:55.075Z,92119.09
2018-01-18T10:40:23.608Z,92135.11
2018-01-18T10:42:58.091Z,92148.19
2018-01-18T10:45:34.523Z,92121.42
2018-01-18T10:48:04.912Z,92113.68
2018-01-18T10:50:55.868Z,92112.69
2018-01-18T10:53:24.224Z,92141.30
2018-01-18T10:55:52.580Z,92139.89
2018-01-18T10:58:20.934Z,92157.69
2018-01-18T11:12:22.465Z,92172.53
2018-01-18T11:14:50.980Z,92202.06
2018-01-18T11:17:26.512Z,92189.02
2018-01-18T11:19:56.431Z,92241.70
2018-01-18T11:22:25.942Z,92208.08
2018-01-18T11:24:55.440Z,92233.83
2018-01-18T11:27:24.354Z,92228.80
2018-01-18T11:29:52.929Z,92229.13
2018-01-18T11:32:21.577Z,92248.11
2018-01-18T11:40:31.560Z,92320.03
2018-01-18T11:43:01.891Z,92325.58
2018-01-18T11:45:31.273Z,92326.84
2018-01-18T11:48:00.068Z,92314.01
2018-01-18T11:50:31.601Z,92348.17
2018-01-18T11:53:00.423Z,92351.06
2018-01-18T11:55:28.923Z,92352.31
2018-01-18T11:57:57.290Z,92360.34
2018-01-18T12:00:25.656Z,92384.54
2018-01-18T12:02:54.023Z,92375.98
2018-01-18T12:05:22.392Z,92402.97
2018-01-18T12:07:50.824Z,92400.59
2018-01-18T12:10:19.177Z,92413.34
2018-01-18T12:12:47.565Z,92423.04
2018-01-18T12:15:15.967Z,92415.66
2018-01-18T12:17:44.334Z,92463.81
2018-01-18T12:20:12.727Z,92456.41
2018-01-18T12:22:41.302Z,92464.48
2018-01-18T12:25:09.667Z,92456.47
2018-01-18T12:27:38.044Z,92488.48
2018-01-18T12:30:06.525Z,92489.80
2018-01-18T12:32:34.956Z,92510.63
2018-01-18T12:35:03.313Z,92507.97
2018-01-18T12:37:31.676Z,92523.03
2018-01-18T12:40:00.073Z,92526.70
2018-01-18T12:42:28.451Z,92546.41
2018-01-18T12:44:56.869Z,92553.41
2018-01-18T12:47:25.235Z,92548.86
2018-01-18T12:49:53.608Z,92598.67
2018-01-18T12:52:21.990Z,92605.14
2018-01-18T12:54:50.351Z,92628.43
2018-01-18T12:57:18.787Z,92655.04
2018-01-18T12:59:47.202Z,92616.78
2018-01-18T13:02:15.575Z,92647.05
2018-01-18T13:04:43.982Z,92640.95
2018-01-18T13:07:12.399Z,92647.30
2018-01-18T13:09:40.875Z,92656.88
2018-01-18T13:12:09.234Z,92665.09
2018-01-18T13:14:37.686Z,92696.48
2018-01-18T13:17:06.140Z,92700.52
2018-01-18T13:19:34.511Z,92714.58
2018-01-18T13:22:02.870Z,92723.22
2018-01-18T13:24:31.273Z,92718.14
2018-01-18T13:26:59.660Z,92745.31
2018-01-18T13:29:28.020Z,92744.70
2018-01-18T13:31:56.376Z,92758.98
2018-01-18T13:34:24.787Z,92792.70
2018-01-18T13:36:53.152Z,92782.61
2018-01-18T13:39:21.500Z,92795.93
2018-01-18T13:41:49.871Z,92823.48
2018-01-18T13:44:18.237Z,92836.50
2018-01-18T13:46:46.772Z,92814.81
2018-01-18T13:49:15.130Z,92836.09
2018-01-18T13:51:43.487Z,92857.81
2018-01-18T13:54:11.851Z,92855.30
2018-01-18T13:56:40.253Z,92881.78
2018-01-18T13:59:08.708Z,92884.11
2018-01-18T14:01:37.118Z,92901.45
2018-01-18T14:04:05.495Z,92884.47
2018-01-18T14:06:34.798Z,92897.64
2018-01-18T14:09:03.177Z,92913.14
2018-01-18T14:11:31.544Z,92914.27
2018-01-18T14:13:59.921Z,92941.77
2018-01-18T14:16:28.316Z,92926.55
2018-01-18T14:18:56.695Z,92929.70
2018-01-18T14:21:25.110Z,92989.81
2018-01-18T14:23:53.702Z,92965.69
2018-01-18T14:26:22.119Z,92959.19
2018-01-18T14:28:50.519Z,92999.88
2018-01-18T14:31:18.922Z,92978.71
2018-01-18T14:33:47.372Z,92967.35
2018-01-18T14:36:15.798Z,92981.81
2018-01-18T14:38:44.193Z,92992.06
2018-01-18T14:41:12.615Z,93002.58
2018-01-18T14:43:41.051Z,92993.70
2018-01-18T14:46:09.406Z,93024.77
2018-01-18T14:48:37.777Z,93015.14
2018-01-18T14:51:06.253Z,93048.56
2018-01-18T14:53:34.618Z,93033.22
2018-01-18T14:56:03.107Z,93038.91
2018-01-18T14:58:31.509Z,93013.48
2018-01-18T15:00:59.923Z,93032.44
2018-01-18T15:03:28.450Z,93057.19
2018-01-18T15:05:56.811Z,93043.78
2018-01-18T15:08:25.227Z,93076.38
2018-01-18T15:10:53.749Z,93067.59
2018-01-18T15:13:22.222Z,93076.52
2018-01-18T15:15:50.635Z,93073.22
2018-01-18T15:18:19.008Z,93099.38
2018-01-18T15:20:47.365Z,93097.30
2018-01-18T15:23:15.723Z,93097.85
2018-01-18T15:25:44.106Z,93094.74
2018-01-18T15:28:12.484Z,93099.00
2018-01-18T15:30:40.933Z,93115.49
2018-01-18T15:33:09.294Z,93118.58
2018-01-18T15:35:37.674Z,93120.13
2018-01-18T15:38:06.054Z,93118.86
2018-01-18T15:40:34.514Z,93129.06
2018-01-18T15:43:02.887Z,93135.98
2018-01-18T15:45:31.271Z,93120.81
2018-01-18T15:47:59.628Z,93143.33
2018-01-18T15:50:28.025Z,93138.04
2018-01-18T15:52:56.400Z,93164.83
2018-01-18T15:55:25.866Z,93154.91
2018-01-18T15:57:54.277Z,93158.69
2018-01-18T16:00:22.626Z,93168.56
2018-01-18T16:02:51.053Z,93166.50
2018-01-18T16:05:19.481Z,93176.73
2018-01-18T16:07:47.874Z,93181.14
2018-01-18T16:10:16.248Z,93192.30
2018-01-18T16:12:44.634Z,93185.08
2018-01-18T16:15:12.990Z,93208.73
2018-01-18T16:17:41.370Z,93208.36
2018-01-18T16:20:09.788Z,93212.84
2018-01-18T16:22:38.188Z,93207.27
2018-01-18T16:25:06.606Z,93211.88
2018-01-18T16:27:34.966Z,93210.80
2018-01-18T16:30:03.371Z,93203.22
2018-01-18T16:32:31.748Z,93224.13
2018-01-18T16:35:00.136Z,93218.41
2018-01-18T16:37:28.511Z,93224.38
2018-01-18T16:39:57.034Z,93226.52
2018-01-18T16:42:25.436Z,93223.61
2018-01-18T16:44:53.836Z,93219.23
2018-01-18T16:47:22.228Z,93227.98
2018-01-18T16:49:50.608Z,93229.25
2018-01-18T16:52:18.986Z,93231.95
2018-01-18T16:54:47.351Z,93232.72
2018-01-18T16:57:15.737Z,93229.15
2018-01-18T16:59:44.112Z,93244.02
2018-01-18T17:02:12.471Z,93249.79
2018-01-18T17:04:40.836Z,93240.92
2018-01-18T17:07:09.188Z,93256.83
2018-01-18T17:09:37.603Z,93250.81
2018-01-18T17:12:05.990Z,93248.41
2018-01-18T17:14:34.455Z,93260.58
2018-01-18T17:17:03.722Z,93256.97
2018-01-18T17:19:32.114Z,93267.78
2018-01-18T17:22:00.757Z,93285.64
2018-01-18T17:24:29.159Z,93283.55
2018-01-18T17:26:58.456Z,93283.69
2018-01-18T17:29:38.184Z,93313.59
2018-01-18T17:32:06.531Z,93278.64
2018-01-18T17:34:34.955Z,93277.62
2018-01-18T17:55:02.484Z,93297.84
2018-01-18T18:42:27.226Z,93358.70
2018-01-18T18:44:55.584Z,93339.95
2018-01-18T18:47:24.006Z,93348.75
2018-01-18T18:49:52.366Z,93356.02
2018-01-18T18:52:20.720Z,93359.74
2018-01-18T18:54:49.159Z,93370.14
2018-01-18T18:57:17.603Z,93370.97
2018-01-18T18:59:45.994Z,93369.11
2018-01-18T19:02:14.358Z,93365.39
2018-01-18T19:04:42.718Z,93376.95
2018-01-18T19:07:11.084Z,93368.59
2018-01-18T19:09:39.511Z,93375.39
2018-01-18T19:12:07.879Z,93376.56
2018-01-18T19:14:36.288Z,93396.18
2018-01-18T19:17:04.710Z,93383.55
2018-01-18T19:19:33.235Z,93390.56
2018-01-18T19:22:02.518Z,93394.89
2018-01-18T19:24:30.911Z,93391.05
2018-01-18T19:26:59.321Z,93389.27
2018-01-18T19:29:27.696Z,93384.44
2018-01-18T19:31:56.054Z,93394.42
2018-01-18T19:34:24.411Z,93403.17
2018-01-18T19:36:52.798Z,93406.75
2018-01-18T19:39:21.204Z,93411.12
2018-01-18T19:41:49.559Z,93411.23
2018-01-18T19:44:17.936Z,93425.38
2018-01-18T19:46:46.307Z,93412.81
2018-01-18T19:49:14.674Z,93422.75
2018-01-18T19:51:43.174Z,93428.94
2018-01-18T19:54:14.507Z,93439.78
2018-01-18T19:56:42.941Z,93437.03
2018-01-18T19:59:11.369Z,93447.13
2018-01-18T20:01:39.744Z,93437.97
2018-01-18T20:04:08.120Z,93431.73
2018-01-18T20:06:36.493Z,93426.38
2018-01-18T20:09:04.889Z,93426.64
2018-01-18T20:11:34.166Z,93432.73
2018-01-18T20:14:02.525Z,93425.52
2018-01-18T20:16:30.899Z,93430.16
2018-01-18T20:18:59.262Z,93431.78
2018-01-18T20:21:27.788Z,93430.82
2018-01-18T20:23:56.152Z,93437.26
2018-01-18T20:26:24.552Z,93434.25
2018-01-18T20:28:52.918Z,93436.68
2018-01-18T20:31:21.299Z,93442.06
2018-01-18T20:33:49.738Z,93445.94
2018-01-18T20:36:18.108Z,93446.10
2018-01-18T20:38:46.498Z,93455.33
2018-01-18T20:41:16.760Z,93454.16
2018-01-18T20:43:45.140Z,93449.55
2018-01-18T20:46:13.500Z,93449.06
2018-01-18T20:48:41.872Z,93444.55
2018-01-18T20:51:10.283Z,93443.39
2018-01-18T20:53:38.650Z,93444.44
2018-01-18T20:56:07.019Z,93447.05
2018-01-18T20:58:35.387Z,93446.36
2018-01-18T21:01:03.771Z,93452.19
2018-01-18T21:03:32.177Z,93454.84
2018-01-18T21:06:00.907Z,93449.48
2018-01-18T21:08:29.313Z,93456.79
2018-01-18T21:10:57.692Z,93449.08
2018-01-18T21:13:26.058Z,93449.19
2018-01-18T21:15:54.490Z,93450.44
2018-01-18T21:18:22.868Z,93451.52
2018-01-18T21:20:51.247Z,93453.52
2018-01-18T21:23:19.631Z,93459.33
2018-01-18T21:25:47.993Z,93456.09
2018-01-18T21:28:16.398Z,93459.06
2018-01-18T21:30:44.763Z,93457.94
2018-01-18T21:33:13.183Z,93454.66
2018-01-18T21:35:41.551Z,93455.83
2018-01-18T21:38:09.922Z,93457.43
2018-01-18T21:40:38.557Z,93459.73
2018-01-18T21:43:06.917Z,93462.19
2018-01-18T21:45:35.311Z,93464.58
2018-01-18T21:48:03.675Z,93468.14
2018-01-18T21:50:32.030Z,93463.75
2018-01-18T21:53:00.422Z,93469.56
2018-01-18T21:55:28.884Z,93462.80
2018-01-18T21:57:57.256Z,93465.12
2018-01-18T22:00:25.716Z,93466.04
2018-01-18T22:02:54.097Z,93467.18
2018-01-18T22:05:22.496Z,93463.42
2018-01-18T22:07:50.862Z,93463.97
2018-01-18T22:10:19.298Z,93468.65
2018-01-18T22:12:47.805Z,93470.91
2018-01-18T22:15:17.046Z,93471.14
2018-01-18T22:17:45.474Z,93466.73
2018-01-18T22:20:13.851Z,93467.14
2018-01-18T22:22:42.237Z,93473.70
2018-01-18T22:25:10.625Z,93471.84
2018-01-18T22:27:39.011Z,93475.52
2018-01-18T22:30:07.493Z,93469.52
2018-01-18T22:32:36.748Z,93476.97
2018-01-18T22:35:05.123Z,93463.98
2018-01-18T22:37:33.503Z,93455.75
2018-01-18T22:40:01.862Z,93449.44
2018-01-18T22:42:30.287Z,93448.04
2018-01-18T22:44:58.643Z,93447.39
2018-01-18T22:47:27.009Z,93449.16
2018-01-18T22:49:55.368Z,93445.36
2018-01-18T22:52:23.753Z,93442.76
2018-01-18T22:54:52.143Z,93441.76
2018-01-18T22:57:20.571Z,93431.58
2018-01-18T22:59:48.927Z,93427.45
2018-01-18T23:02:17.301Z,93430.14
2018-01-18T23:04:45.663Z,93438.13
2018-01-18T23:07:14.059Z,93442.25
2018-01-18T23:09:42.437Z,93440.13
2018-01-18T23:12:10.802Z,93443.09
2018-01-18T23:14:39.166Z,93439.13
2018-01-18T23:17:07.520Z,93443.92
2018-01-18T23:19:35.918Z,93443.19
2018-01-18T23:22:04.283Z,93436.47
2018-01-18T23:24:32.647Z,93440.45
2018-01-18T23:27:01.015Z,93439.02
2018-01-18T23:29:29.380Z,93443.50
2018-01-18T23:31:57.798Z,93438.53
2018-01-18T23:34:26.151Z,93439.12
2018-01-18T23:36:54.517Z,93442.09
2018-01-18T23:39:22.931Z,93440.43
2018-01-18T23:41:51.287Z,93433.52
2018-01-18T23:44:19.678Z,93434.69
2018-01-18T23:46:48.136Z,93434.63
2018-01-18T23:49:16.529Z,93444.88
2018-01-18T23:51:44.974Z,93445.73
2018-01-18T23:54:13.330Z,93445.97
2018-01-18T23:56:41.719Z,93450.21
2018-01-18T23:59:10.082Z,93445.52
